sensor_id;sensor_type;location;lat;lon;timestamp;pressure;altitude;pressure_sealevel;temperature;humidity
19510;BME280;9896;42.486;26.506;2022-09-21T00:01:17;99884.69;;;9.78;73.28
19510;BME280;9896;42.486;26.506;2022-09-21T00:03:44;99894.56;;;9.84;72.65
19510;BME280;9896;42.486;26.506;2022-09-21T00:06:12;99885.94;;;9.95;71.78
19510;BME280;9896;42.486;26.506;2022-09-21T00:08:38;99889.25;;;10.04;70.66
19510;BME280;9896;42.486;26.506;2022-09-21T00:11:05;99887.00;;;10.01;70.84
19510;BME280;9896;42.486;26.506;2022-09-21T00:13:31;99890.97;;;10.18;70.18
19510;BME280;9896;42.486;26.506;2022-09-21T00:15:58;99883.53;;;10.13;69.02
19510;BME280;9896;42.486;26.506;2022-09-21T00:18:24;99882.72;;;10.19;68.70
19510;BME280;9896;42.486;26.506;2022-09-21T00:20:50;99889.50;;;10.02;69.32
19510;BME280;9896;42.486;26.506;2022-09-21T00:23:19;99882.88;;;9.98;69.55
19510;BME280;9896;42.486;26.506;2022-09-21T00:25:44;99884.53;;;10.06;69.18
19510;BME280;9896;42.486;26.506;2022-09-21T00:28:10;99890.09;;;9.98;69.39
19510;BME280;9896;42.486;26.506;2022-09-21T00:30:36;99883.94;;;10.10;68.85
19510;BME280;9896;42.486;26.506;2022-09-21T00:33:02;99887.22;;;10.12;68.57
19510;BME280;9896;42.486;26.506;2022-09-21T00:35:27;99871.97;;;10.13;68.18
19510;BME280;9896;42.486;26.506;2022-09-21T00:37:52;99883.38;;;10.35;67.68
19510;BME280;9896;42.486;26.506;2022-09-21T00:40:18;99886.25;;;10.40;67.44
19510;BME280;9896;42.486;26.506;2022-09-21T00:42:43;99878.41;;;10.25;68.55
19510;BME280;9896;42.486;26.506;2022-09-21T00:45:11;99876.50;;;10.12;68.63
19510;BME280;9896;42.486;26.506;2022-09-21T00:47:47;99886.19;;;10.13;69.34
19510;BME280;9896;42.486;26.506;2022-09-21T00:50:18;99886.19;;;10.13;69.60
19510;BME280;9896;42.486;26.506;2022-09-21T00:52:50;99881.66;;;10.07;69.45
19510;BME280;9896;42.486;26.506;2022-09-21T00:55:51;99878.75;;;9.96;70.09
19510;BME280;9896;42.486;26.506;2022-09-21T00:58:25;99875.25;;;10.08;69.29
19510;BME280;9896;42.486;26.506;2022-09-21T01:00:54;99878.13;;;10.07;69.10
19510;BME280;9896;42.486;26.506;2022-09-21T01:03:21;99874.91;;;10.24;68.75
19510;BME280;9896;42.486;26.506;2022-09-21T01:05:46;99877.16;;;10.27;68.38
19510;BME280;9896;42.486;26.506;2022-09-21T01:08:12;99879.03;;;10.20;68.34
19510;BME280;9896;42.486;26.506;2022-09-21T01:29:58;99866.88;;;10.44;66.83
19510;BME280;9896;42.486;26.506;2022-09-21T01:32:36;99867.72;;;10.51;66.58
19510;BME280;9896;42.486;26.506;2022-09-21T01:35:27;99861.13;;;10.34;66.51
19510;BME280;9896;42.486;26.506;2022-09-21T01:38:00;99863.53;;;10.09;67.34
19510;BME280;9896;42.486;26.506;2022-09-21T01:40:34;99855.13;;;10.25;67.11
19510;BME280;9896;42.486;26.506;2022-09-21T01:43:02;99854.91;;;10.27;67.34
19510;BME280;9896;42.486;26.506;2022-09-21T01:45:41;99855.34;;;10.37;66.44
19510;BME280;9896;42.486;26.506;2022-09-21T01:48:09;99847.91;;;10.46;66.23
19510;BME280;9896;42.486;26.506;2022-09-21T01:50:55;99846.69;;;10.42;66.46
19510;BME280;9896;42.486;26.506;2022-09-21T01:53:40;99851.00;;;10.43;66.47
19510;BME280;9896;42.486;26.506;2022-09-21T01:59:08;99849.16;;;10.43;66.37
19510;BME280;9896;42.486;26.506;2022-09-21T02:01:40;99853.69;;;10.43;66.74
19510;BME280;9896;42.486;26.506;2022-09-21T02:04:10;99853.06;;;10.21;67.41
19510;BME280;9896;42.486;26.506;2022-09-21T02:06:39;99848.53;;;10.21;67.50
19510;BME280;9896;42.486;26.506;2022-09-21T02:09:06;99848.31;;;10.23;66.94
19510;BME280;9896;42.486;26.506;2022-09-21T02:11:33;99856.97;;;10.18;66.83
19510;BME280;9896;42.486;26.506;2022-09-21T02:13:58;99867.88;;;10.10;67.54
19510;BME280;9896;42.486;26.506;2022-09-21T02:16:37;99860.59;;;9.85;68.70
19510;BME280;9896;42.486;26.506;2022-09-21T02:19:14;99866.97;;;9.84;69.56
19510;BME280;9896;42.486;26.506;2022-09-21T02:22:08;99861.00;;;9.95;68.62
19510;BME280;9896;42.486;26.506;2022-09-21T02:24:48;99854.19;;;9.79;69.05
19510;BME280;9896;42.486;26.506;2022-09-21T02:30:02;99854.22;;;9.86;69.16
19510;BME280;9896;42.486;26.506;2022-09-21T02:35:15;99867.00;;;9.90;69.14
19510;BME280;9896;42.486;26.506;2022-09-21T02:38:32;99870.19;;;9.66;69.81
19510;BME280;9896;42.486;26.506;2022-09-21T02:43:39;99870.31;;;9.38;71.41
19510;BME280;9896;42.486;26.506;2022-09-21T02:46:12;99871.63;;;9.62;71.26
19510;BME280;9896;42.486;26.506;2022-09-21T02:48:48;99875.41;;;9.74;70.83
19510;BME280;9896;42.486;26.506;2022-09-21T02:51:24;99874.09;;;9.57;71.47
19510;BME280;9896;42.486;26.506;2022-09-21T02:53:52;99867.88;;;9.43;71.75
19510;BME280;9896;42.486;26.506;2022-09-21T02:56:20;99879.25;;;9.58;71.42
19510;BME280;9896;42.486;26.506;2022-09-21T02:58:49;99867.34;;;9.67;70.80
19510;BME280;9896;42.486;26.506;2022-09-21T03:01:19;99868.41;;;9.73;70.59
19510;BME280;9896;42.486;26.506;2022-09-21T03:03:47;99862.81;;;9.74;69.74
19510;BME280;9896;42.486;26.506;2022-09-21T03:06:12;99879.97;;;9.93;69.08
19510;BME280;9896;42.486;26.506;2022-09-21T03:08:38;99878.94;;;9.88;69.51
19510;BME280;9896;42.486;26.506;2022-09-21T03:11:04;99877.63;;;9.70;69.79
19510;BME280;9896;42.486;26.506;2022-09-21T03:13:29;99877.06;;;9.82;69.79
19510;BME280;9896;42.486;26.506;2022-09-21T03:16:00;99873.97;;;9.78;70.03
19510;BME280;9896;42.486;26.506;2022-09-21T03:18:27;99888.34;;;9.70;69.96
19510;BME280;9896;42.486;26.506;2022-09-21T03:20:52;99871.31;;;9.78;69.78
19510;BME280;9896;42.486;26.506;2022-09-21T03:23:18;99872.91;;;9.72;70.14
19510;BME280;9896;42.486;26.506;2022-09-21T03:25:44;99863.47;;;9.83;70.09
19510;BME280;9896;42.486;26.506;2022-09-21T03:28:10;99857.91;;;9.85;70.23
19510;BME280;9896;42.486;26.506;2022-09-21T03:30:36;99868.44;;;9.99;69.60
19510;BME280;9896;42.486;26.506;2022-09-21T03:33:02;99864.06;;;9.65;71.08
19510;BME280;9896;42.486;26.506;2022-09-21T03:35:29;99864.84;;;9.66;72.19
19510;BME280;9896;42.486;26.506;2022-09-21T03:37:55;99877.22;;;9.60;73.13
19510;BME280;9896;42.486;26.506;2022-09-21T03:40:22;99865.50;;;9.68;72.68
19510;BME280;9896;42.486;26.506;2022-09-21T03:42:47;99870.19;;;9.59;73.62
19510;BME280;9896;42.486;26.506;2022-09-21T03:45:13;99881.00;;;9.38;74.83
19510;BME280;9896;42.486;26.506;2022-09-21T03:47:38;99872.91;;;9.72;72.77
19510;BME280;9896;42.486;26.506;2022-09-21T03:50:07;99875.56;;;9.66;73.26
19510;BME280;9896;42.486;26.506;2022-09-21T03:52:33;99880.34;;;9.77;71.64
19510;BME280;9896;42.486;26.506;2022-09-21T03:55:00;99878.69;;;9.76;70.89
19510;BME280;9896;42.486;26.506;2022-09-21T03:57:27;99878.09;;;9.87;70.22
19510;BME280;9896;42.486;26.506;2022-09-21T03:59:52;99887.31;;;9.71;70.76
19510;BME280;9896;42.486;26.506;2022-09-21T04:02:18;99880.97;;;9.72;70.96
19510;BME280;9896;42.486;26.506;2022-09-21T04:04:44;99886.31;;;9.79;70.74
19510;BME280;9896;42.486;26.506;2022-09-21T04:07:09;99892.50;;;9.73;70.94
19510;BME280;9896;42.486;26.506;2022-09-21T04:09:35;99889.34;;;9.63;71.95
19510;BME280;9896;42.486;26.506;2022-09-21T04:12:00;99885.50;;;9.78;71.62
19510;BME280;9896;42.486;26.506;2022-09-21T04:14:26;99882.03;;;9.85;72.29
19510;BME280;9896;42.486;26.506;2022-09-21T04:16:51;99889.22;;;9.77;73.01
19510;BME280;9896;42.486;26.506;2022-09-21T04:19:17;99877.47;;;9.78;73.46
19510;BME280;9896;42.486;26.506;2022-09-21T04:21:43;99886.13;;;9.74;73.93
19510;BME280;9896;42.486;26.506;2022-09-21T04:24:09;99885.53;;;9.85;71.33
19510;BME280;9896;42.486;26.506;2022-09-21T04:26:35;99874.41;;;9.82;72.00
19510;BME280;9896;42.486;26.506;2022-09-21T04:29:02;99895.41;;;9.91;71.87
19510;BME280;9896;42.486;26.506;2022-09-21T04:31:32;99895.03;;;9.94;71.73
19510;BME280;9896;42.486;26.506;2022-09-21T04:33:58;99890.28;;;10.03;71.26
19510;BME280;9896;42.486;26.506;2022-09-21T04:36:24;99891.53;;;10.00;72.14
19510;BME280;9896;42.486;26.506;2022-09-21T04:38:50;99890.28;;;10.03;72.04
19510;BME280;9896;42.486;26.506;2022-09-21T04:41:16;99891.53;;;10.00;73.00
19510;BME280;9896;42.486;26.506;2022-09-21T04:43:47;99895.81;;;9.88;73.29
19510;BME280;9896;42.486;26.506;2022-09-21T04:46:15;99897.69;;;9.88;73.33
19510;BME280;9896;42.486;26.506;2022-09-21T04:48:41;99895.31;;;9.58;74.23
19510;BME280;9896;42.486;26.506;2022-09-21T04:51:08;99901.78;;;9.84;74.31
19510;BME280;9896;42.486;26.506;2022-09-21T04:53:36;99898.69;;;9.87;74.92
19510;BME280;9896;42.486;26.506;2022-09-21T04:56:03;99901.31;;;9.67;77.11
19510;BME280;9896;42.486;26.506;2022-09-21T04:58:29;99904.81;;;9.61;78.49
19510;BME280;9896;42.486;26.506;2022-09-21T05:00:54;99886.06;;;9.61;78.75
19510;BME280;9896;42.486;26.506;2022-09-21T05:03:21;99906.25;;;9.63;79.04
19510;BME280;9896;42.486;26.506;2022-09-21T05:08:14;99905.75;;;10.07;77.58
19510;BME280;9896;42.486;26.506;2022-09-21T05:10:40;99898.59;;;10.27;76.63
19510;BME280;9896;42.486;26.506;2022-09-21T05:13:05;99895.72;;;10.16;76.89
19510;BME280;9896;42.486;26.506;2022-09-21T05:15:31;99893.06;;;10.49;75.45
19510;BME280;9896;42.486;26.506;2022-09-21T05:17:56;99898.84;;;10.46;74.90
19510;BME280;9896;42.486;26.506;2022-09-21T05:20:22;99897.59;;;10.48;74.90
19510;BME280;9896;42.486;26.506;2022-09-21T05:22:48;99895.97;;;10.54;73.83
19510;BME280;9896;42.486;26.506;2022-09-21T05:25:14;99886.25;;;10.86;71.50
19510;BME280;9896;42.486;26.506;2022-09-21T05:27:40;99892.63;;;11.04;70.22
19510;BME280;9896;42.486;26.506;2022-09-21T05:30:06;99893.19;;;11.19;69.95
19510;BME280;9896;42.486;26.506;2022-09-21T05:32:46;99885.56;;;11.16;69.50
19510;BME280;9896;42.486;26.506;2022-09-21T05:35:30;99888.28;;;10.97;70.73
19510;BME280;9896;42.486;26.506;2022-09-21T05:38:16;99887.38;;;11.29;71.03
19510;BME280;9896;42.486;26.506;2022-09-21T05:40:43;99873.66;;;11.50;69.30
19510;BME280;9896;42.486;26.506;2022-09-21T05:43:09;99877.09;;;11.77;67.96
19510;BME280;9896;42.486;26.506;2022-09-21T05:45:39;99871.09;;;11.82;67.97
19510;BME280;9896;42.486;26.506;2022-09-21T05:48:15;99875.25;;;12.09;67.34
19510;BME280;9896;42.486;26.506;2022-09-21T05:51:09;99868.03;;;12.09;66.90
19510;BME280;9896;42.486;26.506;2022-09-21T05:53:52;99865.13;;;12.36;65.79
19510;BME280;9896;42.486;26.506;2022-09-21T05:56:46;99865.25;;;12.47;65.38
19510;BME280;9896;42.486;26.506;2022-09-21T06:04:44;99863.66;;;12.65;65.08
19510;BME280;9896;42.486;26.506;2022-09-21T06:07:10;99860.34;;;12.87;64.79
19510;BME280;9896;42.486;26.506;2022-09-21T06:09:36;99867.72;;;12.92;64.54
19510;BME280;9896;42.486;26.506;2022-09-21T06:12:01;99866.75;;;13.11;64.32
19510;BME280;9896;42.486;26.506;2022-09-21T06:14:27;99866.09;;;13.16;64.03
19510;BME280;9896;42.486;26.506;2022-09-21T06:16:52;99868.78;;;13.16;64.60
19510;BME280;9896;42.486;26.506;2022-09-21T06:19:18;99867.28;;;13.38;63.80
19510;BME280;9896;42.486;26.506;2022-09-21T06:21:44;99872.50;;;13.69;62.22
19510;BME280;9896;42.486;26.506;2022-09-21T06:24:10;99881.13;;;13.89;61.30
19510;BME280;9896;42.486;26.506;2022-09-21T06:26:36;99870.31;;;14.19;60.40
19510;BME280;9896;42.486;26.506;2022-09-21T06:29:02;99873.84;;;14.73;58.84
19510;BME280;9896;42.486;26.506;2022-09-21T06:31:27;99868.19;;;15.21;57.20
19510;BME280;9896;42.486;26.506;2022-09-21T06:33:52;99854.78;;;15.26;56.54
19510;BME280;9896;42.486;26.506;2022-09-21T06:36:18;99869.25;;;15.20;57.59
19510;BME280;9896;42.486;26.506;2022-09-21T06:38:43;99857.88;;;15.98;55.24
19510;BME280;9896;42.486;26.506;2022-09-21T06:41:09;99863.84;;;16.45;54.38
19510;BME280;9896;42.486;26.506;2022-09-21T06:43:34;99847.38;;;16.80;53.56
19510;BME280;9896;42.486;26.506;2022-09-21T06:46:01;99846.97;;;17.48;51.35
19510;BME280;9896;42.486;26.506;2022-09-21T06:48:27;99853.88;;;17.39;48.44
19510;BME280;9896;42.486;26.506;2022-09-21T06:50:59;99853.28;;;16.77;48.29
19510;BME280;9896;42.486;26.506;2022-09-21T06:53:26;99860.75;;;16.69;47.21
19510;BME280;9896;42.486;26.506;2022-09-21T06:55:52;99862.53;;;16.47;48.15
19510;BME280;9896;42.486;26.506;2022-09-21T06:58:18;99861.56;;;16.87;47.50
19510;BME280;9896;42.486;26.506;2022-09-21T07:00:44;99854.28;;;16.87;47.55
19510;BME280;9896;42.486;26.506;2022-09-21T07:03:10;99861.59;;;17.08;47.19
19510;BME280;9896;42.486;26.506;2022-09-21T07:05:37;99848.59;;;16.55;48.46
19510;BME280;9896;42.486;26.506;2022-09-21T07:08:03;99853.66;;;16.52;47.99
19510;BME280;9896;42.486;26.506;2022-09-21T07:10:28;99864.44;;;16.63;48.15
19510;BME280;9896;42.486;26.506;2022-09-21T07:12:55;99851.63;;;16.92;47.87
19510;BME280;9896;42.486;26.506;2022-09-21T07:15:20;99860.84;;;17.13;47.65
19510;BME280;9896;42.486;26.506;2022-09-21T07:17:46;99851.97;;;17.17;47.89
19510;BME280;9896;42.486;26.506;2022-09-21T07:20:12;99853.16;;;17.05;47.95
19510;BME280;9896;42.486;26.506;2022-09-21T07:22:37;99852.22;;;16.94;48.27
19510;BME280;9896;42.486;26.506;2022-09-21T07:25:04;99856.28;;;16.97;47.92
19510;BME280;9896;42.486;26.506;2022-09-21T07:27:31;99853.97;;;17.05;47.86
19510;BME280;9896;42.486;26.506;2022-09-21T07:29:57;99840.34;;;17.00;48.03
19510;BME280;9896;42.486;26.506;2022-09-21T07:32:22;99831.75;;;17.25;47.30
19510;BME280;9896;42.486;26.506;2022-09-21T07:34:48;99846.72;;;16.89;48.43
19510;BME280;9896;42.486;26.506;2022-09-21T07:37:14;99845.75;;;16.79;48.60
19510;BME280;9896;42.486;26.506;2022-09-21T07:39:39;99843.91;;;16.84;48.09
19510;BME280;9896;42.486;26.506;2022-09-21T07:42:05;99843.78;;;17.12;47.84
19510;BME280;9896;42.486;26.506;2022-09-21T07:44:31;99838.63;;;17.33;46.95
19510;BME280;9896;42.486;26.506;2022-09-21T07:46:57;99838.31;;;17.51;45.83
19510;BME280;9896;42.486;26.506;2022-09-21T07:49:22;99835.91;;;17.54;46.27
19510;BME280;9896;42.486;26.506;2022-09-21T07:51:48;99830.69;;;17.70;45.36
19510;BME280;9896;42.486;26.506;2022-09-21T07:54:13;99829.44;;;17.55;46.90
19510;BME280;9896;42.486;26.506;2022-09-21T07:56:42;99827.97;;;17.70;44.27
19510;BME280;9896;42.486;26.506;2022-09-21T07:59:27;99832.91;;;17.73;45.25
19510;BME280;9896;42.486;26.506;2022-09-21T08:01:56;99837.09;;;17.58;45.34
19510;BME280;9896;42.486;26.506;2022-09-21T08:04:22;99828.53;;;17.50;44.93
19510;BME280;9896;42.486;26.506;2022-09-21T08:06:47;99832.03;;;17.67;45.62
19510;BME280;9896;42.486;26.506;2022-09-21T08:09:12;99832.31;;;17.92;45.09
19510;BME280;9896;42.486;26.506;2022-09-21T08:11:38;99821.47;;;18.24;43.29
19510;BME280;9896;42.486;26.506;2022-09-21T08:14:09;99831.94;;;18.10;44.31
19510;BME280;9896;42.486;26.506;2022-09-21T08:16:37;99826.00;;;18.14;43.80
19510;BME280;9896;42.486;26.506;2022-09-21T08:19:05;99840.59;;;18.39;43.21
19510;BME280;9896;42.486;26.506;2022-09-21T08:21:31;99829.38;;;18.26;41.44
19510;BME280;9896;42.486;26.506;2022-09-21T08:23:56;99833.69;;;18.22;41.17
19510;BME280;9896;42.486;26.506;2022-09-21T08:26:22;99817.00;;;18.40;40.63
19510;BME280;9896;42.486;26.506;2022-09-21T08:28:51;99821.63;;;18.76;40.81
19510;BME280;9896;42.486;26.506;2022-09-21T08:31:18;99828.72;;;18.77;40.67
19510;BME280;9896;42.486;26.506;2022-09-21T08:33:47;99815.94;;;19.30;39.51
19510;BME280;9896;42.486;26.506;2022-09-21T08:36:14;99808.56;;;19.15;39.41
19510;BME280;9896;42.486;26.506;2022-09-21T08:38:39;99810.88;;;19.43;40.12
19510;BME280;9896;42.486;26.506;2022-09-21T08:41:18;99816.63;;;19.00;39.73
19510;BME280;9896;42.486;26.506;2022-09-21T08:43:58;99815.72;;;18.84;39.15
19510;BME280;9896;42.486;26.506;2022-09-21T08:46:28;99822.63;;;19.02;37.96
19510;BME280;9896;42.486;26.506;2022-09-21T08:49:21;99802.22;;;19.04;38.33
19510;BME280;9896;42.486;26.506;2022-09-21T08:51:53;99814.88;;;18.84;38.85
19510;BME280;9896;42.486;26.506;2022-09-21T08:57:10;99799.41;;;19.41;38.50
19510;BME280;9896;42.486;26.506;2022-09-21T08:59:39;99790.66;;;19.29;38.77
19510;BME280;9896;42.486;26.506;2022-09-21T09:19:10;99787.56;;;19.06;36.53
19510;BME280;9896;42.486;26.506;2022-09-21T09:21:42;99772.28;;;19.46;36.52
19510;BME280;9896;42.486;26.506;2022-09-21T09:24:42;99769.66;;;20.02;36.09
19510;BME280;9896;42.486;26.506;2022-09-21T09:32:27;99758.69;;;19.52;37.12
19510;BME280;9896;42.486;26.506;2022-09-21T09:35:04;99767.53;;;19.22;37.08
19510;BME280;9896;42.486;26.506;2022-09-21T09:37:35;99762.00;;;19.01;38.06
19510;BME280;9896;42.486;26.506;2022-09-21T09:40:05;99756.41;;;19.23;38.09
19510;BME280;9896;42.486;26.506;2022-09-21T09:50:42;99753.03;;;19.68;36.12
19510;BME280;9896;42.486;26.506;2022-09-21T09:53:15;99753.97;;;19.27;37.02
19510;BME280;9896;42.486;26.506;2022-09-21T09:55:44;99756.25;;;18.93;36.75
19510;BME280;9896;42.486;26.506;2022-09-21T09:58:21;99750.28;;;18.91;38.40
19510;BME280;9896;42.486;26.506;2022-09-21T10:00:52;99751.06;;;18.91;38.06
19510;BME280;9896;42.486;26.506;2022-09-21T10:03:27;99749.69;;;18.84;37.86
19510;BME280;9896;42.486;26.506;2022-09-21T10:05:53;99750.53;;;18.89;37.32
19510;BME280;9896;42.486;26.506;2022-09-21T10:11:14;99743.44;;;20.82;34.48
19510;BME280;9896;42.486;26.506;2022-09-21T10:13:49;99739.44;;;19.88;35.92
19510;BME280;9896;42.486;26.506;2022-09-21T10:21:20;99744.03;;;19.68;35.16
19510;BME280;9896;42.486;26.506;2022-09-21T10:23:50;99740.59;;;19.20;36.61
19510;BME280;9896;42.486;26.506;2022-09-21T10:26:17;99736.81;;;19.21;37.05
19510;BME280;9896;42.486;26.506;2022-09-21T10:28:58;99738.00;;;19.45;36.47
19510;BME280;9896;42.486;26.506;2022-09-21T10:31:26;99743.63;;;19.29;36.48
19510;BME280;9896;42.486;26.506;2022-09-21T10:36:35;99732.31;;;18.85;36.85
19510;BME280;9896;42.486;26.506;2022-09-21T10:39:11;99739.00;;;19.19;36.59
19510;BME280;9896;42.486;26.506;2022-09-21T10:41:36;99741.19;;;19.27;36.11
19510;BME280;9896;42.486;26.506;2022-09-21T10:44:02;99738.47;;;19.27;36.15
19510;BME280;9896;42.486;26.506;2022-09-21T10:46:33;99743.59;;;19.14;36.57
19510;BME280;9896;42.486;26.506;2022-09-21T10:49:01;99742.47;;;19.10;36.79
19510;BME280;9896;42.486;26.506;2022-09-21T10:51:28;99737.56;;;19.01;36.56
19510;BME280;9896;42.486;26.506;2022-09-21T10:53:55;99733.84;;;19.23;36.41
19510;BME280;9896;42.486;26.506;2022-09-21T10:56:22;99743.50;;;18.93;36.49
19510;BME280;9896;42.486;26.506;2022-09-21T11:01:45;99736.88;;;18.79;37.05
19510;BME280;9896;42.486;26.506;2022-09-21T11:07:21;99733.44;;;18.94;36.34
19510;BME280;9896;42.486;26.506;2022-09-21T11:12:40;99724.91;;;18.75;35.89
19510;BME280;9896;42.486;26.506;2022-09-21T11:15:32;99720.13;;;18.50;36.91
19510;BME280;9896;42.486;26.506;2022-09-21T11:20:54;99724.31;;;18.63;37.65
19510;BME280;9896;42.486;26.506;2022-09-21T11:26:24;99717.47;;;18.55;37.63
19510;BME280;9896;42.486;26.506;2022-09-21T11:28:54;99722.78;;;18.77;37.95
19510;BME280;9896;42.486;26.506;2022-09-21T11:31:51;99720.09;;;18.87;37.96
19510;BME280;9896;42.486;26.506;2022-09-21T11:51:38;99727.84;;;18.64;37.72
19510;BME280;9896;42.486;26.506;2022-09-21T12:00:15;99726.53;;;18.66;37.61
19510;BME280;9896;42.486;26.506;2022-09-21T12:11:45;99720.34;;;18.39;37.45
19510;BME280;9896;42.486;26.506;2022-09-21T12:22:21;99727.13;;;18.78;36.76
19510;BME280;9896;42.486;26.506;2022-09-21T12:24:52;99708.88;;;18.69;36.29
19510;BME280;9896;42.486;26.506;2022-09-21T12:27:33;99713.25;;;18.80;36.23
19510;BME280;9896;42.486;26.506;2022-09-21T12:30:09;99717.47;;;18.55;37.50
19510;BME280;9896;42.486;26.506;2022-09-21T12:35:49;99695.16;;;18.48;38.03
19510;BME280;9896;42.486;26.506;2022-09-21T12:38:29;99693.31;;;18.59;37.93
19510;BME280;9896;42.486;26.506;2022-09-21T12:44:16;99704.44;;;18.52;39.46
19510;BME280;9896;42.486;26.506;2022-09-21T12:46:47;99696.28;;;18.52;39.28
19510;BME280;9896;42.486;26.506;2022-09-21T12:49:24;99705.94;;;18.80;39.03
19510;BME280;9896;42.486;26.506;2022-09-21T12:51:55;99706.38;;;19.19;37.92
19510;BME280;9896;42.486;26.506;2022-09-21T12:54:57;99697.34;;;18.98;38.77
19510;BME280;9896;42.486;26.506;2022-09-21T12:59:57;99710.09;;;18.98;39.19
19510;BME280;9896;42.486;26.506;2022-09-21T13:08:02;99709.47;;;18.34;38.95
19510;BME280;9896;42.486;26.506;2022-09-21T13:10:41;99714.69;;;18.50;39.48
19510;BME280;9896;42.486;26.506;2022-09-21T13:13:17;99710.53;;;18.33;38.70
19510;BME280;9896;42.486;26.506;2022-09-21T13:15:46;99712.72;;;18.36;38.78
19510;BME280;9896;42.486;26.506;2022-09-21T13:18:28;99717.28;;;18.30;39.01
19510;BME280;9896;42.486;26.506;2022-09-21T13:20:57;99720.94;;;18.51;38.80
19510;BME280;9896;42.486;26.506;2022-09-21T13:23:31;99720.75;;;18.21;39.42
19510;BME280;9896;42.486;26.506;2022-09-21T13:26:05;99706.84;;;18.12;38.82
19510;BME280;9896;42.486;26.506;2022-09-21T13:34:23;99710.91;;;18.51;38.51
19510;BME280;9896;42.486;26.506;2022-09-21T13:45:46;99708.88;;;18.32;38.80
19510;BME280;9896;42.486;26.506;2022-09-21T13:47:50;99714.03;;;18.28;39.30
19510;BME280;9896;42.486;26.506;2022-09-21T13:52:53;99716.22;;;18.31;39.17
19510;BME280;9896;42.486;26.506;2022-09-21T13:58:00;99707.84;;;18.38;39.04
19510;BME280;9896;42.486;26.506;2022-09-21T14:00:42;99699.22;;;18.46;38.44
19510;BME280;9896;42.486;26.506;2022-09-21T14:06:02;99694.31;;;18.90;36.72
19510;BME280;9896;42.486;26.506;2022-09-21T14:08:33;99703.00;;;18.92;36.52
19510;BME280;9896;42.486;26.506;2022-09-21T14:11:01;99704.53;;;18.73;38.13
19510;BME280;9896;42.486;26.506;2022-09-21T14:13:40;99705.88;;;18.65;39.45
19510;BME280;9896;42.486;26.506;2022-09-21T14:19:02;99708.00;;;18.21;39.94
19510;BME280;9896;42.486;26.506;2022-09-21T14:21:28;99713.97;;;18.23;40.44
19510;BME280;9896;42.486;26.506;2022-09-21T14:29:29;99704.38;;;18.10;39.99
19510;BME280;9896;42.486;26.506;2022-09-21T14:31:59;99709.53;;;18.07;39.49
19510;BME280;9896;42.486;26.506;2022-09-21T14:34:32;99702.38;;;17.96;39.03
19510;BME280;9896;42.486;26.506;2022-09-21T14:37:02;99707.00;;;17.95;39.39
19510;BME280;9896;42.486;26.506;2022-09-21T14:39:34;99709.13;;;17.93;39.81
19510;BME280;9896;42.486;26.506;2022-09-21T14:42:23;99708.59;;;17.91;40.22
19510;BME280;9896;42.486;26.506;2022-09-21T14:44:59;99701.69;;;17.79;40.46
19510;BME280;9896;42.486;26.506;2022-09-21T14:50:59;99699.72;;;18.43;39.89
19510;BME280;9896;42.486;26.506;2022-09-21T14:53:33;99702.72;;;18.46;39.68
19510;BME280;9896;42.486;26.506;2022-09-21T14:56:46;99701.91;;;18.41;39.76
19510;BME280;9896;42.486;26.506;2022-09-21T15:02:20;99712.25;;;18.07;41.11
19510;BME280;9896;42.486;26.506;2022-09-21T15:07:37;99713.34;;;18.11;41.73
19510;BME280;9896;42.486;26.506;2022-09-21T15:10:27;99720.75;;;17.84;42.12
19510;BME280;9896;42.486;26.506;2022-09-21T15:13:35;99728.81;;;17.79;42.73
19510;BME280;9896;42.486;26.506;2022-09-21T15:18:45;99720.78;;;17.35;43.10
19510;BME280;9896;42.486;26.506;2022-09-21T15:21:30;99729.00;;;17.45;42.85
19510;BME280;9896;42.486;26.506;2022-09-21T15:23:57;99733.88;;;17.43;42.79
19510;BME280;9896;42.486;26.506;2022-09-21T15:26:31;99738.56;;;17.26;42.98
19510;BME280;9896;42.486;26.506;2022-09-21T15:29:02;99742.03;;;17.22;43.28
19510;BME280;9896;42.486;26.506;2022-09-21T15:31:33;99742.41;;;17.08;42.21
19510;BME280;9896;42.486;26.506;2022-09-21T15:33:59;99743.66;;;17.01;42.46
19510;BME280;9896;42.486;26.506;2022-09-21T15:36:28;99738.31;;;16.84;42.94
19510;BME280;9896;42.486;26.506;2022-09-21T15:38:55;99744.22;;;16.81;42.64
19510;BME280;9896;42.486;26.506;2022-09-21T15:44:25;99738.81;;;16.81;42.45
19510;BME280;9896;42.486;26.506;2022-09-21T15:46:56;99741.50;;;16.81;42.66
19510;BME280;9896;42.486;26.506;2022-09-21T15:49:26;99728.81;;;16.82;42.05
19510;BME280;9896;42.486;26.506;2022-09-21T15:54:33;99739.75;;;16.70;41.17
19510;BME280;9896;42.486;26.506;2022-09-21T15:57:02;99742.88;;;16.62;41.93
19510;BME280;9896;42.486;26.506;2022-09-21T15:59:32;99754.53;;;16.46;42.14
19510;BME280;9896;42.486;26.506;2022-09-21T16:02:08;99752.41;;;16.31;42.29
19510;BME280;9896;42.486;26.506;2022-09-21T16:04:34;99747.00;;;16.14;42.22
19510;BME280;9896;42.486;26.506;2022-09-21T16:07:05;99756.59;;;16.05;42.79
19510;BME280;9896;42.486;26.506;2022-09-21T16:09:41;99752.47;;;15.86;43.14
19510;BME280;9896;42.486;26.506;2022-09-21T16:12:35;99758.53;;;15.76;43.51
19510;BME280;9896;42.486;26.506;2022-09-21T16:17:58;99764.25;;;15.63;44.21
19510;BME280;9896;42.486;26.506;2022-09-21T16:23:05;99763.34;;;15.46;45.41
19510;BME280;9896;42.486;26.506;2022-09-21T16:25:36;99763.88;;;15.31;45.71
19510;BME280;9896;42.486;26.506;2022-09-21T16:28:25;99764.09;;;15.30;46.29
19510;BME280;9896;42.486;26.506;2022-09-21T16:30:54;99779.16;;;15.26;46.40
19510;BME280;9896;42.486;26.506;2022-09-21T16:38:53;99778.97;;;15.04;47.47
19510;BME280;9896;42.486;26.506;2022-09-21T16:41:20;99786.63;;;15.07;47.62
19510;BME280;9896;42.486;26.506;2022-09-21T16:43:47;99789.53;;;15.06;47.35
19510;BME280;9896;42.486;26.506;2022-09-21T16:46:15;99793.56;;;14.92;47.95
19510;BME280;9896;42.486;26.506;2022-09-21T16:48:42;99794.25;;;14.75;48.85
19510;BME280;9896;42.486;26.506;2022-09-21T16:51:13;99795.56;;;14.73;48.96